sensor_id;sensor_type;location;lat;lon;timestamp;pressure;altitude;pressure_sealevel;temperature;humidity
70930;BME280;58588;48.102;19.682;2023-03-14T00:02:51;98795.53;;;4.17;88.85
70930;BME280;58588;48.102;19.682;2023-03-14T00:05:54;98795.53;;;4.17;91.35
70930;BME280;58588;48.102;19.682;2023-03-14T00:08:56;98780.19;;;4.19;90.41
70930;BME280;58588;48.102;19.682;2023-03-14T00:11:59;98769.50;;;3.61;97.15
70930;BME280;58588;48.102;19.682;2023-03-14T00:15:01;98759.06;;;3.75;97.32
70930;BME280;58588;48.102;19.682;2023-03-14T00:18:05;98746.75;;;3.83;95.84
70930;BME280;58588;48.102;19.682;2023-03-14T00:21:09;98751.53;;;3.71;98.74
70930;BME280;58588;48.102;19.682;2023-03-14T00:24:11;98737.91;;;3.74;98.37
70930;BME280;58588;48.102;19.682;2023-03-14T00:27:13;98744.91;;;3.75;99.18
70930;BME280;58588;48.102;19.682;2023-03-14T00:30:16;98740.03;;;3.70;99.24
70930;BME280;58588;48.102;19.682;2023-03-14T00:33:20;98735.59;;;3.79;99.19
70930;BME280;58588;48.102;19.682;2023-03-14T00:36:23;98741.50;;;3.65;99.22
70930;BME280;58588;48.102;19.682;2023-03-14T00:39:25;98743.25;;;3.40;99.61
70930;BME280;58588;48.102;19.682;2023-03-14T00:42:27;98742.56;;;3.38;100.00
70930;BME280;58588;48.102;19.682;2023-03-14T00:45:29;98734.38;;;3.05;100.00
70930;BME280;58588;48.102;19.682;2023-03-14T00:48:33;98726.13;;;3.16;100.00
70930;BME280;58588;48.102;19.682;2023-03-14T00:51:35;98720.88;;;2.99;100.00
70930;BME280;58588;48.102;19.682;2023-03-14T00:54:37;98713.84;;;2.89;100.00
70930;BME280;58588;48.102;19.682;2023-03-14T00:57:39;98704.53;;;2.67;100.00
70930;BME280;58588;48.102;19.682;2023-03-14T01:00:42;98698.75;;;2.72;100.00
70930;BME280;58588;48.102;19.682;2023-03-14T01:03:46;98696.53;;;2.67;100.00
70930;BME280;58588;48.102;19.682;2023-03-14T01:06:48;98692.16;;;2.58;100.00
70930;BME280;58588;48.102;19.682;2023-03-14T01:09:51;98675.06;;;2.43;100.00
70930;BME280;58588;48.102;19.682;2023-03-14T01:12:54;98684.19;;;2.84;100.00
70930;BME280;58588;48.102;19.682;2023-03-14T01:16:01;98666.63;;;3.34;100.00
70930;BME280;58588;48.102;19.682;2023-03-14T01:19:06;98668.75;;;3.22;100.00
70930;BME280;58588;48.102;19.682;2023-03-14T01:22:08;98660.81;;;2.96;100.00
70930;BME280;58588;48.102;19.682;2023-03-14T01:25:12;98656.19;;;3.06;100.00
70930;BME280;58588;48.102;19.682;2023-03-14T01:28:14;98645.56;;;2.54;100.00
70930;BME280;58588;48.102;19.682;2023-03-14T01:31:17;98632.22;;;2.46;100.00
70930;BME280;58588;48.102;19.682;2023-03-14T01:34:20;98614.53;;;2.63;100.00
70930;BME280;58588;48.102;19.682;2023-03-14T01:37:22;98606.47;;;3.15;100.00
70930;BME280;58588;48.102;19.682;2023-03-14T01:40:24;98594.88;;;3.24;100.00
70930;BME280;58588;48.102;19.682;2023-03-14T01:43:27;98581.97;;;3.03;100.00
70930;BME280;58588;48.102;19.682;2023-03-14T01:46:35;98569.53;;;2.44;100.00
70930;BME280;58588;48.102;19.682;2023-03-14T01:49:39;98569.13;;;2.30;100.00
70930;BME280;58588;48.102;19.682;2023-03-14T01:52:44;98560.34;;;2.38;100.00
70930;BME280;58588;48.102;19.682;2023-03-14T01:55:47;98569.44;;;2.53;100.00
70930;BME280;58588;48.102;19.682;2023-03-14T01:58:50;98561.00;;;2.66;100.00
70930;BME280;58588;48.102;19.682;2023-03-14T02:01:54;98553.59;;;2.86;100.00
70930;BME280;58588;48.102;19.682;2023-03-14T02:04:59;98550.28;;;2.84;100.00
70930;BME280;58588;48.102;19.682;2023-03-14T02:08:02;98548.19;;;3.04;100.00
70930;BME280;58588;48.102;19.682;2023-03-14T02:11:06;98536.47;;;3.31;100.00
70930;BME280;58588;48.102;19.682;2023-03-14T02:14:16;98528.16;;;3.42;100.00
70930;BME280;58588;48.102;19.682;2023-03-14T02:17:22;98530.78;;;3.34;100.00
70930;BME280;58588;48.102;19.682;2023-03-14T02:20:34;98528.28;;;3.24;100.00
70930;BME280;58588;48.102;19.682;2023-03-14T02:23:43;98525.75;;;3.22;100.00
70930;BME280;58588;48.102;19.682;2023-03-14T02:27:18;98512.66;;;3.37;100.00
70930;BME280;58588;48.102;19.682;2023-03-14T02:30:23;98508.50;;;3.59;100.00
70930;BME280;58588;48.102;19.682;2023-03-14T02:33:26;98501.66;;;4.06;98.61
70930;BME280;58588;48.102;19.682;2023-03-14T02:36:29;98508.72;;;4.54;91.15
70930;BME280;58588;48.102;19.682;2023-03-14T02:39:36;98499.53;;;4.96;85.91
70930;BME280;58588;48.102;19.682;2023-03-14T02:42:41;98505.22;;;4.93;85.22
70930;BME280;58588;48.102;19.682;2023-03-14T02:45:44;98494.56;;;5.16;81.14
70930;BME280;58588;48.102;19.682;2023-03-14T02:48:48;98488.41;;;5.38;77.94
70930;BME280;58588;48.102;19.682;2023-03-14T02:51:52;98485.69;;;5.69;75.90
70930;BME280;58588;48.102;19.682;2023-03-14T02:54:54;98475.88;;;5.84;74.05
70930;BME280;58588;48.102;19.682;2023-03-14T02:57:57;98473.72;;;5.80;75.16
70930;BME280;58588;48.102;19.682;2023-03-14T03:00:59;98458.41;;;5.97;72.90
70930;BME280;58588;48.102;19.682;2023-03-14T03:04:01;98446.38;;;5.93;73.59
70930;BME280;58588;48.102;19.682;2023-03-14T03:07:04;98458.31;;;6.05;73.53
70930;BME280;58588;48.102;19.682;2023-03-14T03:10:07;98446.44;;;6.07;72.96
70930;BME280;58588;48.102;19.682;2023-03-14T03:13:10;98444.47;;;6.01;78.91
70930;BME280;58588;48.102;19.682;2023-03-14T03:16:12;98453.00;;;5.82;84.53
70930;BME280;58588;48.102;19.682;2023-03-14T03:19:15;98442.84;;;5.77;83.80
70930;BME280;58588;48.102;19.682;2023-03-14T03:22:18;98442.00;;;5.77;85.45
70930;BME280;58588;48.102;19.682;2023-03-14T03:25:20;98441.63;;;5.65;88.63
70930;BME280;58588;48.102;19.682;2023-03-14T03:28:23;98429.13;;;5.57;88.04
70930;BME280;58588;48.102;19.682;2023-03-14T03:31:26;98446.56;;;5.53;94.17
70930;BME280;58588;48.102;19.682;2023-03-14T03:34:28;98446.63;;;5.22;95.74
70930;BME280;58588;48.102;19.682;2023-03-14T03:37:30;98447.19;;;4.87;93.91
70930;BME280;58588;48.102;19.682;2023-03-14T03:40:32;98439.44;;;4.92;92.99
70930;BME280;58588;48.102;19.682;2023-03-14T03:43:36;98439.38;;;4.77;94.95
70930;BME280;58588;48.102;19.682;2023-03-14T03:46:38;98449.19;;;4.84;90.67
70930;BME280;58588;48.102;19.682;2023-03-14T03:49:40;98458.84;;;4.54;96.37
70930;BME280;58588;48.102;19.682;2023-03-14T03:52:42;98447.25;;;4.70;92.83
70930;BME280;58588;48.102;19.682;2023-03-14T03:55:44;98447.25;;;4.70;92.00
70930;BME280;58588;48.102;19.682;2023-03-14T03:58:48;98434.69;;;4.79;91.90
70930;BME280;58588;48.102;19.682;2023-03-14T04:01:50;98435.75;;;4.70;93.88
70930;BME280;58588;48.102;19.682;2023-03-14T04:04:52;98442.81;;;4.63;98.57
70930;BME280;58588;48.102;19.682;2023-03-14T04:07:54;98451.19;;;4.51;99.29
70930;BME280;58588;48.102;19.682;2023-03-14T04:10:57;98435.88;;;4.37;100.00
70930;BME280;58588;48.102;19.682;2023-03-14T04:14:00;98426.03;;;4.46;94.99
70930;BME280;58588;48.102;19.682;2023-03-14T04:17:03;98449.63;;;4.26;100.00
70930;BME280;58588;48.102;19.682;2023-03-14T04:20:06;98456.00;;;4.00;100.00
70930;BME280;58588;48.102;19.682;2023-03-14T04:23:11;98446.53;;;3.82;100.00
70930;BME280;58588;48.102;19.682;2023-03-14T04:26:13;98450.38;;;3.79;100.00
70930;BME280;58588;48.102;19.682;2023-03-14T04:29:16;98445.88;;;3.96;99.01
70930;BME280;58588;48.102;19.682;2023-03-14T04:32:18;98436.97;;;4.12;96.20
70930;BME280;58588;48.102;19.682;2023-03-14T04:35:21;98427.50;;;4.01;99.99
70930;BME280;58588;48.102;19.682;2023-03-14T04:38:23;98432.19;;;3.99;100.00
70930;BME280;58588;48.102;19.682;2023-03-14T04:41:25;98426.03;;;3.90;100.00
70930;BME280;58588;48.102;19.682;2023-03-14T04:44:28;98423.25;;;3.67;100.00
70930;BME280;58588;48.102;19.682;2023-03-14T04:47:53;98428.91;;;3.56;100.00
70930;BME280;58588;48.102;19.682;2023-03-14T04:50:55;98428.59;;;3.43;100.00
70930;BME280;58588;48.102;19.682;2023-03-14T04:53:57;98431.25;;;3.51;100.00
70930;BME280;58588;48.102;19.682;2023-03-14T04:57:00;98443.41;;;3.45;100.00
70930;BME280;58588;48.102;19.682;2023-03-14T05:00:04;98425.41;;;3.39;100.00
70930;BME280;58588;48.102;19.682;2023-03-14T05:03:07;98422.91;;;3.46;100.00
70930;BME280;58588;48.102;19.682;2023-03-14T05:06:09;98421.25;;;3.37;100.00
70930;BME280;58588;48.102;19.682;2023-03-14T05:09:12;98414.91;;;3.30;100.00
70930;BME280;58588;48.102;19.682;2023-03-14T05:12:14;98406.44;;;3.34;100.00
70930;BME280;58588;48.102;19.682;2023-03-14T05:15:17;98401.44;;;3.23;100.00
70930;BME280;58588;48.102;19.682;2023-03-14T05:18:19;98403.63;;;3.19;100.00
70930;BME280;58588;48.102;19.682;2023-03-14T05:21:21;98395.44;;;3.21;100.00
70930;BME280;58588;48.102;19.682;2023-03-14T05:24:23;98392.47;;;3.24;100.00
70930;BME280;58588;48.102;19.682;2023-03-14T05:27:27;98374.31;;;3.19;100.00
70930;BME280;58588;48.102;19.682;2023-03-14T05:30:30;98374.66;;;3.08;100.00
70930;BME280;58588;48.102;19.682;2023-03-14T05:33:34;98368.84;;;3.13;100.00
70930;BME280;58588;48.102;19.682;2023-03-14T05:36:36;98384.66;;;3.06;100.00
70930;BME280;58588;48.102;19.682;2023-03-14T05:39:38;98381.97;;;3.14;100.00
70930;BME280;58588;48.102;19.682;2023-03-14T05:42:40;98380.16;;;3.31;100.00
70930;BME280;58588;48.102;19.682;2023-03-14T05:45:44;98371.63;;;3.52;100.00
70930;BME280;58588;48.102;19.682;2023-03-14T05:48:46;98379.09;;;3.65;100.00
70930;BME280;58588;48.102;19.682;2023-03-14T05:51:48;98361.25;;;3.73;100.00
70930;BME280;58588;48.102;19.682;2023-03-14T05:54:53;98370.06;;;3.90;100.00
70930;BME280;58588;48.102;19.682;2023-03-14T05:57:55;98365.50;;;3.99;100.00
70930;BME280;58588;48.102;19.682;2023-03-14T06:01:04;98364.66;;;4.07;100.00
70930;BME280;58588;48.102;19.682;2023-03-14T06:04:07;98363.72;;;4.30;100.00
70930;BME280;58588;48.102;19.682;2023-03-14T06:07:15;98350.94;;;4.49;100.00
70930;BME280;58588;48.102;19.682;2023-03-14T06:10:17;98347.00;;;4.68;100.00
70930;BME280;58588;48.102;19.682;2023-03-14T06:13:20;98343.69;;;4.66;100.00
70930;BME280;58588;48.102;19.682;2023-03-14T06:16:24;98334.22;;;4.86;100.00
70930;BME280;58588;48.102;19.682;2023-03-14T06:19:26;98345.34;;;5.13;100.00
70930;BME280;58588;48.102;19.682;2023-03-14T06:22:28;98347.13;;;5.20;100.00
70930;BME280;58588;48.102;19.682;2023-03-14T06:25:31;98344.94;;;5.38;100.00
70930;BME280;58588;48.102;19.682;2023-03-14T06:28:33;98361.03;;;5.68;100.00
70930;BME280;58588;48.102;19.682;2023-03-14T06:31:36;98365.31;;;5.92;98.92
70930;BME280;58588;48.102;19.682;2023-03-14T06:34:38;98351.09;;;6.36;93.85
70930;BME280;58588;48.102;19.682;2023-03-14T06:37:41;98354.34;;;6.67;93.96
70930;BME280;58588;48.102;19.682;2023-03-14T06:40:43;98338.44;;;7.02;93.05
70930;BME280;58588;48.102;19.682;2023-03-14T06:43:47;98340.88;;;7.25;86.41
70930;BME280;58588;48.102;19.682;2023-03-14T06:46:53;98350.56;;;7.47;79.88
70930;BME280;58588;48.102;19.682;2023-03-14T06:50:01;98352.97;;;7.64;76.55
70930;BME280;58588;48.102;19.682;2023-03-14T06:53:03;98343.94;;;7.71;76.15
70930;BME280;58588;48.102;19.682;2023-03-14T06:56:07;98359.53;;;7.89;75.49
70930;BME280;58588;48.102;19.682;2023-03-14T06:59:09;98359.81;;;8.01;73.81
70930;BME280;58588;48.102;19.682;2023-03-14T07:02:12;98361.34;;;8.17;71.40
70930;BME280;58588;48.102;19.682;2023-03-14T07:05:15;98353.91;;;8.47;69.81
70930;BME280;58588;48.102;19.682;2023-03-14T07:08:17;98343.63;;;8.64;70.14
70930;BME280;58588;48.102;19.682;2023-03-14T07:11:19;98337.47;;;8.90;68.53
70930;BME280;58588;48.102;19.682;2023-03-14T07:14:21;98338.75;;;9.07;66.83
70930;BME280;58588;48.102;19.682;2023-03-14T07:17:25;98339.59;;;9.21;66.79
70930;BME280;58588;48.102;19.682;2023-03-14T07:20:27;98344.34;;;9.58;63.38
70930;BME280;58588;48.102;19.682;2023-03-14T07:23:30;98342.03;;;9.95;61.37
70930;BME280;58588;48.102;19.682;2023-03-14T07:26:32;98336.59;;;10.22;62.97
70930;BME280;58588;48.102;19.682;2023-03-14T07:29:34;98347.22;;;10.61;60.81
70930;BME280;58588;48.102;19.682;2023-03-14T07:32:38;98350.22;;;10.85;62.00
70930;BME280;58588;48.102;19.682;2023-03-14T07:35:40;98344.22;;;10.83;58.99
70930;BME280;58588;48.102;19.682;2023-03-14T07:38:42;98340.78;;;10.69;58.73
70930;BME280;58588;48.102;19.682;2023-03-14T07:41:44;98325.22;;;10.71;57.33
70930;BME280;58588;48.102;19.682;2023-03-14T07:44:46;98333.59;;;10.94;59.66
70930;BME280;58588;48.102;19.682;2023-03-14T07:47:50;98331.84;;;11.07;62.02
70930;BME280;58588;48.102;19.682;2023-03-14T07:50:53;98320.97;;;11.20;61.27
70930;BME280;58588;48.102;19.682;2023-03-14T07:53:56;98330.69;;;11.28;60.39
70930;BME280;58588;48.102;19.682;2023-03-14T07:56:58;98324.44;;;11.27;59.01
70930;BME280;58588;48.102;19.682;2023-03-14T08:00:01;98326.56;;;11.68;57.30
70930;BME280;58588;48.102;19.682;2023-03-14T08:03:07;98343.09;;;12.03;56.64
70930;BME280;58588;48.102;19.682;2023-03-14T08:06:09;98338.59;;;12.16;56.15
70930;BME280;58588;48.102;19.682;2023-03-14T08:09:11;98328.53;;;12.23;54.52
70930;BME280;58588;48.102;19.682;2023-03-14T08:12:13;98327.38;;;12.19;54.31
70930;BME280;58588;48.102;19.682;2023-03-14T08:15:16;98324.94;;;12.29;54.82
70930;BME280;58588;48.102;19.682;2023-03-14T08:18:20;98320.44;;;12.41;55.74
70930;BME280;58588;48.102;19.682;2023-03-14T08:21:22;98313.78;;;12.25;54.47
70930;BME280;58588;48.102;19.682;2023-03-14T08:24:24;98324.28;;;12.33;54.15
70930;BME280;58588;48.102;19.682;2023-03-14T08:27:26;98309.72;;;12.65;52.54
70930;BME280;58588;48.102;19.682;2023-03-14T08:30:28;98310.66;;;12.89;52.75
70930;BME280;58588;48.102;19.682;2023-03-14T08:33:31;98298.97;;;13.18;53.70
70930;BME280;58588;48.102;19.682;2023-03-14T08:36:33;98299.41;;;13.33;54.99
70930;BME280;58588;48.102;19.682;2023-03-14T08:39:35;98286.72;;;13.46;51.94
70930;BME280;58588;48.102;19.682;2023-03-14T08:42:38;98285.78;;;13.63;54.21
70930;BME280;58588;48.102;19.682;2023-03-14T08:45:40;98286.91;;;14.03;52.82
70930;BME280;58588;48.102;19.682;2023-03-14T08:48:44;98284.97;;;14.27;52.72
70930;BME280;58588;48.102;19.682;2023-03-14T08:51:46;98276.81;;;14.38;51.83
70930;BME280;58588;48.102;19.682;2023-03-14T08:54:48;98276.13;;;14.31;51.05
70930;BME280;58588;48.102;19.682;2023-03-14T08:57:50;98275.63;;;14.58;51.48
70930;BME280;58588;48.102;19.682;2023-03-14T09:00:52;98271.59;;;14.60;50.78
70930;BME280;58588;48.102;19.682;2023-03-14T09:03:56;98276.66;;;14.57;50.17
70930;BME280;58588;48.102;19.682;2023-03-14T09:06:58;98267.00;;;14.61;51.51
70930;BME280;58588;48.102;19.682;2023-03-14T09:10:01;98252.56;;;14.72;50.76
70930;BME280;58588;48.102;19.682;2023-03-14T09:13:03;98261.81;;;14.88;51.93
70930;BME280;58588;48.102;19.682;2023-03-14T09:16:06;98258.19;;;14.82;50.26
70930;BME280;58588;48.102;19.682;2023-03-14T09:19:10;98243.16;;;15.08;49.88
70930;BME280;58588;48.102;19.682;2023-03-14T09:22:12;98229.47;;;14.86;50.35
70930;BME280;58588;48.102;19.682;2023-03-14T09:25:14;98216.88;;;14.80;50.59
70930;BME280;58588;48.102;19.682;2023-03-14T09:28:16;98227.94;;;15.07;51.78
70930;BME280;58588;48.102;19.682;2023-03-14T09:31:18;98226.63;;;15.10;50.33
70930;BME280;58588;48.102;19.682;2023-03-14T09:34:22;98207.69;;;15.48;48.79
70930;BME280;58588;48.102;19.682;2023-03-14T09:37:24;98197.94;;;16.08;50.03
70930;BME280;58588;48.102;19.682;2023-03-14T09:40:31;98189.22;;;16.60;49.64
70930;BME280;58588;48.102;19.682;2023-03-14T10:16:48;98135.41;;;19.03;43.66
70930;BME280;58588;48.102;19.682;2023-03-14T10:19:56;98146.88;;;19.20;43.60
70930;BME280;58588;48.102;19.682;2023-03-14T10:23:00;98142.47;;;19.29;42.64
70930;BME280;58588;48.102;19.682;2023-03-14T10:26:07;98133.69;;;19.52;42.81
70930;BME280;58588;48.102;19.682;2023-03-14T10:29:12;98119.59;;;20.00;41.96
70930;BME280;58588;48.102;19.682;2023-03-14T10:32:19;98120.50;;;20.35;41.33
70930;BME280;58588;48.102;19.682;2023-03-14T10:35:23;98118.41;;;20.21;41.31
70930;BME280;58588;48.102;19.682;2023-03-14T10:38:27;98107.16;;;19.73;40.73
70930;BME280;58588;48.102;19.682;2023-03-14T10:41:31;98092.66;;;19.68;41.30
70930;BME280;58588;48.102;19.682;2023-03-14T10:44:34;98091.88;;;19.42;41.73
70930;BME280;58588;48.102;19.682;2023-03-14T10:47:48;98083.44;;;19.43;41.63
70930;BME280;58588;48.102;19.682;2023-03-14T10:50:55;98073.66;;;19.12;40.54
70930;BME280;58588;48.102;19.682;2023-03-14T10:53:59;98075.84;;;19.10;42.35
70930;BME280;58588;48.102;19.682;2023-03-14T10:57:04;98063.81;;;19.21;42.51
70930;BME280;58588;48.102;19.682;2023-03-14T11:00:14;98065.84;;;19.70;42.01
70930;BME280;58588;48.102;19.682;2023-03-14T11:03:19;98034.84;;;19.90;41.06
70930;BME280;58588;48.102;19.682;2023-03-14T11:06:27;98051.97;;;20.11;41.72
70930;BME280;58588;48.102;19.682;2023-03-14T11:09:35;98040.88;;;19.92;43.84
70930;BME280;58588;48.102;19.682;2023-03-14T11:12:43;98038.81;;;20.13;41.71
70930;BME280;58588;48.102;19.682;2023-03-14T11:15:58;98033.81;;;20.25;41.41
70930;BME280;58588;48.102;19.682;2023-03-14T11:19:14;98046.56;;;20.00;41.19
70930;BME280;58588;48.102;19.682;2023-03-14T11:22:28;98023.00;;;20.04;43.01
70930;BME280;58588;48.102;19.682;2023-03-14T11:25:41;98016.81;;;20.28;41.26
70930;BME280;58588;48.102;19.682;2023-03-14T11:28:48;98013.47;;;19.97;41.78
70930;BME280;58588;48.102;19.682;2023-03-14T11:31:55;98016.25;;;19.92;42.46
70930;BME280;58588;48.102;19.682;2023-03-14T11:35:04;98007.78;;;19.88;41.70
70930;BME280;58588;48.102;19.682;2023-03-14T11:38:17;97999.47;;;19.59;43.09
70930;BME280;58588;48.102;19.682;2023-03-14T11:41:25;98005.84;;;19.24;43.48
70930;BME280;58588;48.102;19.682;2023-03-14T11:44:34;98001.28;;;19.09;43.88
70930;BME280;58588;48.102;19.682;2023-03-14T11:47:39;97982.69;;;19.06;44.03
70930;BME280;58588;48.102;19.682;2023-03-14T11:50:47;97964.34;;;19.22;44.86
70930;BME280;58588;48.102;19.682;2023-03-14T11:53:58;97965.28;;;19.62;44.49
70930;BME280;58588;48.102;19.682;2023-03-14T11:57:04;97949.38;;;19.69;42.81
70930;BME280;58588;48.102;19.682;2023-03-14T12:00:15;97948.53;;;19.73;42.86
70930;BME280;58588;48.102;19.682;2023-03-14T12:03:25;97939.72;;;19.82;43.03
70930;BME280;58588;48.102;19.682;2023-03-14T12:06:37;97935.56;;;19.89;42.67
70930;BME280;58588;48.102;19.682;2023-03-14T12:09:44;97923.47;;;20.29;41.08
70930;BME280;58588;48.102;19.682;2023-03-14T12:12:47;97934.69;;;20.62;41.00
70930;BME280;58588;48.102;19.682;2023-03-14T12:15:54;97917.00;;;21.21;39.81
70930;BME280;58588;48.102;19.682;2023-03-14T12:19:13;97926.28;;;21.49;40.36
70930;BME280;58588;48.102;19.682;2023-03-14T12:22:28;97910.09;;;21.29;41.29
70930;BME280;58588;48.102;19.682;2023-03-14T12:25:33;97909.69;;;20.93;40.58
70930;BME280;58588;48.102;19.682;2023-03-14T12:28:36;97900.19;;;20.85;39.67
70930;BME280;58588;48.102;19.682;2023-03-14T12:31:42;97893.22;;;20.45;40.85
70930;BME280;58588;48.102;19.682;2023-03-14T12:34:44;97895.19;;;20.10;41.70
70930;BME280;58588;48.102;19.682;2023-03-14T12:37:50;97902.91;;;19.69;41.89
70930;BME280;58588;48.102;19.682;2023-03-14T12:40:59;97900.91;;;19.80;42.50
70930;BME280;58588;48.102;19.682;2023-03-14T12:48:08;97896.94;;;19.07;43.80
70930;BME280;58588;48.102;19.682;2023-03-14T12:51:14;97886.19;;;19.26;43.45
70930;BME280;58588;48.102;19.682;2023-03-14T12:54:38;97878.22;;;19.35;43.99
70930;BME280;58588;48.102;19.682;2023-03-14T12:57:45;97866.72;;;19.38;42.70
70930;BME280;58588;48.102;19.682;2023-03-14T13:00:55;97861.91;;;19.19;43.22
70930;BME280;58588;48.102;19.682;2023-03-14T13:04:03;97862.50;;;19.11;43.72
70930;BME280;58588;48.102;19.682;2023-03-14T13:07:12;97855.78;;;18.88;44.63
70930;BME280;58588;48.102;19.682;2023-03-14T13:10:20;97842.44;;;18.77;44.96
70930;BME280;58588;48.102;19.682;2023-03-14T13:13:24;97836.75;;;18.63;44.67
70930;BME280;58588;48.102;19.682;2023-03-14T13:16:27;97835.13;;;18.62;44.80
70930;BME280;58588;48.102;19.682;2023-03-14T13:19:31;97823.19;;;18.37;46.01
70930;BME280;58588;48.102;19.682;2023-03-14T13:22:35;97823.47;;;18.36;46.47
70930;BME280;58588;48.102;19.682;2023-03-14T13:25:40;97817.44;;;18.44;47.54
70930;BME280;58588;48.102;19.682;2023-03-14T13:28:43;97821.84;;;18.30;47.63
70930;BME280;58588;48.102;19.682;2023-03-14T13:31:46;97819.66;;;18.22;47.92
70930;BME280;58588;48.102;19.682;2023-03-14T13:34:48;97822.41;;;18.22;49.13
70930;BME280;58588;48.102;19.682;2023-03-14T13:37:56;97805.75;;;18.23;48.46
70930;BME280;58588;48.102;19.682;2023-03-14T13:41:03;97815.31;;;18.21;48.06
70930;BME280;58588;48.102;19.682;2023-03-14T13:44:07;97841.25;;;18.08;48.61
70930;BME280;58588;48.102;19.682;2023-03-14T13:47:13;97828.44;;;18.13;47.15
70930;BME280;58588;48.102;19.682;2023-03-14T13:50:17;97824.84;;;18.23;46.36
70930;BME280;58588;48.102;19.682;2023-03-14T13:53:20;97820.75;;;18.31;46.99
70930;BME280;58588;48.102;19.682;2023-03-14T13:56:26;97833.88;;;18.24;46.62
70930;BME280;58588;48.102;19.682;2023-03-14T13:59:29;97842.59;;;18.10;49.01
70930;BME280;58588;48.102;19.682;2023-03-14T14:02:32;97849.44;;;17.98;48.30
70930;BME280;58588;48.102;19.682;2023-03-14T14:05:35;97847.81;;;17.91;45.52
70930;BME280;58588;48.102;19.682;2023-03-14T14:08:41;97839.09;;;17.79;45.93
70930;BME280;58588;48.102;19.682;2023-03-14T14:11:47;97841.28;;;17.77;45.55
70930;BME280;58588;48.102;19.682;2023-03-14T14:14:54;97842.34;;;17.71;45.53
70930;BME280;58588;48.102;19.682;2023-03-14T14:18:00;97835.78;;;17.67;46.95
70930;BME280;58588;48.102;19.682;2023-03-14T14:21:04;97844.22;;;17.50;47.36
70930;BME280;58588;48.102;19.682;2023-03-14T14:24:08;97849.66;;;17.30;48.23
70930;BME280;58588;48.102;19.682;2023-03-14T14:27:15;97852.03;;;17.01;52.67
70930;BME280;58588;48.102;19.682;2023-03-14T14:30:30;97853.09;;;16.90;54.20
70930;BME280;58588;48.102;19.682;2023-03-14T14:33:41;97860.94;;;16.76;54.63
70930;BME280;58588;48.102;19.682;2023-03-14T14:36:45;97860.41;;;16.74;55.10
70930;BME280;58588;48.102;19.682;2023-03-14T14:39:51;97848.63;;;16.68;54.09
70930;BME280;58588;48.102;19.682;2023-03-14T14:43:02;97858.13;;;16.66;54.23
70930;BME280;58588;48.102;19.682;2023-03-14T14:46:06;97846.75;;;16.69;53.93
70930;BME280;58588;48.102;19.682;2023-03-14T14:49:13;97844.63;;;16.81;51.41
70930;BME280;58588;48.102;19.682;2023-03-14T14:52:17;97849.78;;;16.77;51.34
70930;BME280;58588;48.102;19.682;2023-03-14T14:55:20;97856.03;;;16.78;53.19
70930;BME280;58588;48.102;19.682;2023-03-14T14:58:26;97857.44;;;16.91;50.39
70930;BME280;58588;48.102;19.682;2023-03-14T15:01:32;97860.16;;;16.91;49.74
70930;BME280;58588;48.102;19.682;2023-03-14T15:04:36;97891.88;;;16.65;52.76
70930;BME280;58588;48.102;19.682;2023-03-14T15:07:38;97896.47;;;16.17;56.42
70930;BME280;58588;48.102;19.682;2023-03-14T15:10:41;97891.09;;;15.85;56.93
70930;BME280;58588;48.102;19.682;2023-03-14T15:13:44;97885.88;;;15.83;58.09
70930;BME280;58588;48.102;19.682;2023-03-14T15:16:46;97889.34;;;15.73;59.05
70930;BME280;58588;48.102;19.682;2023-03-14T15:19:49;97888.03;;;15.49;60.99
70930;BME280;58588;48.102;19.682;2023-03-14T15:22:52;97885.81;;;15.19;64.42
70930;BME280;58588;48.102;19.682;2023-03-14T15:25:54;97885.63;;;15.04;64.87
70930;BME280;58588;48.102;19.682;2023-03-14T15:28:57;97878.41;;;14.87;68.81
70930;BME280;58588;48.102;19.682;2023-03-14T15:31:59;97879.78;;;14.68;69.95
70930;BME280;58588;48.102;19.682;2023-03-14T15:35:02;97873.09;;;14.54;72.41
70930;BME280;58588;48.102;19.682;2023-03-14T15:38:04;97871.66;;;14.29;73.41
70930;BME280;58588;48.102;19.682;2023-03-14T15:41:08;97876.06;;;14.35;77.87
70930;BME280;58588;48.102;19.682;2023-03-14T15:44:12;97887.03;;;14.24;78.53
70930;BME280;58588;48.102;19.682;2023-03-14T15:47:14;97885.78;;;14.14;81.05
70930;BME280;58588;48.102;19.682;2023-03-14T15:50:16;97888.47;;;13.92;82.05
70930;BME280;58588;48.102;19.682;2023-03-14T15:53:19;97902.56;;;13.95;83.01
70930;BME280;58588;48.102;19.682;2023-03-14T15:56:21;97899.69;;;14.01;84.56
70930;BME280;58588;48.102;19.682;2023-03-14T15:59:27;97902.09;;;13.98;85.69
70930;BME280;58588;48.102;19.682;2023-03-14T16:02:29;97915.13;;;14.01;85.04
70930;BME280;58588;48.102;19.682;2023-03-14T16:05:31;97920.63;;;14.06;87.34
70930;BME280;58588;48.102;19.682;2023-03-14T16:08:33;97935.41;;;13.98;91.64
70930;BME280;58588;48.102;19.682;2023-03-14T16:11:35;97939.59;;;13.89;91.67
70930;BME280;58588;48.102;19.682;2023-03-14T16:14:38;97937.59;;;13.84;89.00
70930;BME280;58588;48.102;19.682;2023-03-14T16:17:43;97953.16;;;13.60;95.77
70930;BME280;58588;48.102;19.682;2023-03-14T16:20:51;97966.84;;;13.54;95.96
70930;BME280;58588;48.102;19.682;2023-03-14T16:23:53;97972.47;;;13.64;97.09
70930;BME280;58588;48.102;19.682;2023-03-14T16:26:55;97981.09;;;13.49;97.40
70930;BME280;58588;48.102;19.682;2023-03-14T16:29:59;97981.25;;;13.43;100.00
70930;BME280;58588;48.102;19.682;2023-03-14T16:33:01;97989.72;;;13.46;100.00
70930;BME280;58588;48.102;19.682;2023-03-14T16:36:09;97991.25;;;13.42;100.00
70930;BME280;58588;48.102;19.682;2023-03-14T16:39:11;97998.72;;;13.35;100.00
70930;BME280;58588;48.102;19.682;2023-03-14T16:42:14;97995.09;;;13.29;100.00
70930;BME280;58588;48.102;19.682;2023-03-14T16:45:17;98001.09;;;13.20;100.00